createdAt,value
2022-12-23T00:01:22.568Z,41.97
2022-12-23T00:03:49.456Z,28.90
2022-12-23T00:06:17.193Z,54.00
2022-12-23T00:08:44.410Z,66.40
2022-12-23T00:11:12.870Z,42.60
2022-12-23T00:13:58.848Z,25.17
2022-12-23T00:16:26.103Z,30.65
2022-12-23T00:18:53.324Z,42.45
2022-12-23T00:21:20.893Z,28.98
2022-12-23T00:23:49.299Z,19.50
2022-12-23T00:26:17.768Z,25.85
2022-12-23T00:28:45.107Z,27.10
2022-12-23T00:31:12.316Z,27.40
2022-12-23T00:33:43.623Z,20.63
2022-12-23T00:36:14.100Z,24.85
2022-12-23T00:38:59.786Z,84.32
2022-12-23T00:41:45.345Z,28.58
2022-12-23T00:44:12.520Z,24.15
2022-12-23T00:46:39.580Z,18.48
2022-12-23T00:49:24.887Z,18.85
2022-12-23T00:51:51.395Z,46.20
2022-12-23T00:54:18.697Z,18.90
2022-12-23T00:56:45.604Z,23.83
2022-12-23T00:59:12.521Z,24.20
2022-12-23T01:01:57.830Z,42.83
2022-12-23T01:04:43.139Z,23.08
2022-12-23T01:07:10.566Z,19.90
2022-12-23T01:09:37.459Z,22.02
2022-12-23T01:12:04.391Z,17.02
2022-12-23T01:14:31.423Z,17.80
2022-12-23T01:16:58.430Z,17.85
2022-12-23T01:19:25.446Z,16.70
2022-12-23T01:21:52.391Z,19.73
2022-12-23T01:24:19.632Z,18.77
2022-12-23T01:26:46.532Z,17.45
2022-12-23T01:29:13.360Z,17.75
2022-12-23T01:31:40.609Z,18.60
2022-12-23T01:34:07.613Z,16.50
2022-12-23T01:36:34.514Z,18.55
2022-12-23T01:39:01.361Z,18.67
2022-12-23T01:41:48.473Z,16.48
2022-12-23T01:44:33.780Z,16.67
2022-12-23T01:47:00.742Z,19.10
2022-12-23T01:49:27.722Z,17.75
2022-12-23T01:51:54.800Z,19.17
2022-12-23T01:54:21.672Z,18.30
2022-12-23T01:56:48.972Z,19.60
2022-12-23T01:59:35.010Z,19.30
2022-12-23T02:02:21.082Z,18.75
2022-12-23T02:04:49.056Z,17.45
2022-12-23T02:07:35.621Z,19.00
2022-12-23T02:10:03.422Z,18.10
2022-12-23T02:12:42.790Z,16.88
2022-12-23T02:15:37.466Z,19.67
2022-12-23T02:18:22.678Z,17.70
2022-12-23T02:20:52.782Z,18.65
2022-12-23T02:23:38.527Z,17.77
2022-12-23T02:26:08.432Z,17.58
2022-12-23T02:28:43.837Z,19.42
2022-12-23T02:31:43.091Z,17.35
2022-12-23T02:34:09.895Z,16.75
2022-12-23T02:36:46.722Z,17.35
2022-12-23T02:39:18.220Z,17.50
2022-12-23T02:41:56.986Z,18.83
2022-12-23T02:44:31.302Z,17.85
2022-12-23T02:47:05.761Z,19.08
2022-12-23T02:49:39.120Z,19.10
2022-12-23T02:52:09.220Z,18.88
2022-12-23T02:54:39.266Z,18.48
2022-12-23T02:57:07.924Z,20.52
2022-12-23T02:59:40.055Z,19.17
2022-12-23T03:02:06.934Z,19.52
2022-12-23T03:04:34.140Z,18.50
2022-12-23T03:07:07.343Z,20.70
2022-12-23T03:10:04.261Z,20.67
2022-12-23T03:12:33.926Z,18.02
2022-12-23T03:15:12.912Z,16.10
2022-12-23T03:17:48.986Z,17.60
2022-12-23T03:20:25.916Z,20.90
2022-12-23T03:23:06.333Z,17.67
2022-12-23T03:25:36.797Z,18.92
2022-12-23T03:28:11.626Z,17.45
2022-12-23T03:30:40.976Z,17.90
2022-12-23T03:33:20.002Z,16.60
2022-12-23T03:35:53.361Z,20.05
2022-12-23T03:38:21.289Z,16.10
2022-12-23T03:40:50.156Z,16.73
2022-12-23T03:43:20.631Z,17.02
2022-12-23T03:45:51.399Z,14.98
2022-12-23T03:48:38.659Z,15.27
2022-12-23T03:51:09.563Z,17.13
2022-12-23T03:53:42.970Z,17.63
2022-12-23T03:56:13.390Z,15.30
2022-12-23T03:58:44.070Z,17.02
2022-12-23T04:01:18.070Z,15.25
2022-12-23T04:03:48.543Z,14.65
2022-12-23T04:06:18.068Z,16.50
2022-12-23T04:08:46.539Z,21.50
2022-12-23T04:11:13.687Z,24.58
2022-12-23T04:13:41.023Z,20.70
2022-12-23T04:16:08.418Z,17.15
2022-12-23T04:18:35.555Z,16.45
2022-12-23T04:21:02.161Z,16.83
2022-12-23T04:23:29.129Z,16.13
2022-12-23T04:25:56.093Z,18.50
2022-12-23T04:28:23.207Z,18.08
2022-12-23T04:30:50.101Z,15.40
2022-12-23T04:33:17.097Z,18.10
2022-12-23T04:35:44.225Z,14.35
2022-12-23T04:38:11.452Z,17.42
2022-12-23T04:40:38.352Z,17.80
2022-12-23T04:43:05.196Z,16.85
2022-12-23T04:45:32.716Z,15.32
2022-12-23T04:47:59.631Z,16.35
2022-12-23T04:50:26.540Z,15.02
2022-12-23T04:52:53.471Z,17.52
2022-12-23T04:55:20.362Z,16.05
2022-12-23T04:57:47.228Z,16.35
2022-12-23T05:00:14.652Z,13.98
2022-12-23T05:02:41.706Z,14.48
2022-12-23T05:05:09.083Z,15.10
2022-12-23T05:07:36.031Z,13.85
2022-12-23T05:10:02.856Z,17.73
2022-12-23T05:12:30.204Z,14.93
2022-12-23T05:14:57.315Z,14.85
2022-12-23T05:17:24.262Z,16.30
2022-12-23T05:19:51.151Z,14.45
2022-12-23T05:22:18.026Z,13.73
2022-12-23T05:24:44.903Z,14.05
2022-12-23T05:27:11.842Z,15.32
2022-12-23T05:29:39.152Z,15.20
2022-12-23T05:32:06.195Z,14.40
2022-12-23T05:34:33.340Z,14.48
2022-12-23T05:37:00.505Z,14.13
2022-12-23T05:39:27.689Z,15.85
2022-12-23T05:41:54.590Z,14.68
2022-12-23T05:44:21.749Z,15.18
2022-12-23T05:46:48.855Z,14.68
2022-12-23T05:49:15.877Z,14.60
2022-12-23T05:51:43.230Z,15.27
2022-12-23T05:54:10.381Z,15.85
2022-12-23T05:56:37.370Z,17.17
2022-12-23T05:59:04.483Z,20.88
2022-12-23T06:01:31.495Z,17.70
2022-12-23T06:03:58.441Z,20.08
2022-12-23T06:06:25.617Z,18.48
2022-12-23T06:08:57.616Z,20.42
2022-12-23T06:11:26.534Z,19.17
2022-12-23T06:13:53.428Z,32.67
2022-12-23T06:16:20.378Z,25.70
2022-12-23T06:18:47.416Z,24.38
2022-12-23T06:21:14.425Z,31.45
2022-12-23T06:23:41.423Z,24.25
2022-12-23T06:26:08.447Z,20.00
2022-12-23T06:28:35.359Z,21.65
2022-12-23T06:31:02.276Z,22.17
2022-12-23T06:33:29.374Z,23.70
2022-12-23T06:35:56.252Z,22.38
2022-12-23T06:38:23.138Z,22.55
2022-12-23T06:40:50.134Z,22.88
2022-12-23T06:43:17.377Z,22.80
2022-12-23T06:45:47.910Z,23.75
2022-12-23T06:48:15.009Z,28.20
2022-12-23T06:50:42.127Z,78.78
2022-12-23T06:53:09.330Z,32.30
2022-12-23T06:55:36.282Z,25.33
2022-12-23T06:58:03.279Z,25.27
2022-12-23T07:00:30.298Z,32.63
2022-12-23T07:02:57.436Z,35.00
2022-12-23T07:05:24.562Z,26.90
2022-12-23T07:07:51.517Z,28.15
2022-12-23T07:10:18.550Z,32.65
2022-12-23T07:12:50.573Z,29.80
2022-12-23T07:15:17.511Z,36.10
2022-12-23T07:17:44.390Z,24.00
2022-12-23T07:20:13.842Z,26.35
2022-12-23T07:22:41.575Z,27.75
2022-12-23T07:25:08.998Z,25.27
2022-12-23T07:27:35.915Z,23.40
2022-12-23T07:30:02.915Z,30.02
2022-12-23T07:32:30.019Z,24.05
2022-12-23T07:34:56.949Z,25.40
2022-12-23T07:37:23.920Z,22.58
2022-12-23T07:39:50.812Z,27.42
2022-12-23T07:42:43.547Z,26.60
2022-12-23T07:45:04.930Z,23.23
2022-12-23T07:47:31.890Z,24.08
2022-12-23T07:49:58.806Z,22.98
2022-12-23T07:52:25.748Z,29.10
2022-12-23T07:54:52.679Z,24.05
2022-12-23T07:57:19.584Z,26.23
2022-12-23T07:59:46.428Z,23.08
2022-12-23T08:02:13.422Z,23.45
2022-12-23T08:04:45.872Z,22.33
2022-12-23T08:07:13.448Z,48.10
2022-12-23T08:09:40.424Z,42.58
2022-12-23T08:12:07.418Z,37.03
2022-12-23T08:14:34.293Z,41.20
2022-12-23T08:17:01.304Z,33.58
2022-12-23T08:19:28.646Z,37.42
2022-12-23T08:21:55.751Z,40.33
2022-12-23T08:24:22.610Z,41.35
2022-12-23T08:26:49.452Z,49.92
2022-12-23T08:29:16.407Z,29.25
2022-12-23T08:31:43.463Z,39.05
2022-12-23T08:34:10.993Z,58.10
2022-12-23T08:36:38.048Z,36.63
2022-12-23T08:39:07.245Z,49.45
2022-12-23T08:41:37.543Z,30.88
2022-12-23T08:44:05.014Z,29.30
2022-12-23T08:46:32.129Z,27.25
2022-12-23T08:48:59.366Z,34.17
2022-12-23T08:51:27.057Z,39.10
2022-12-23T08:53:59.860Z,82.43
2022-12-23T08:56:29.725Z,135.10
2022-12-23T08:58:57.074Z,74.63
2022-12-23T09:01:25.547Z,45.03
2022-12-23T09:03:52.923Z,22.60
2022-12-23T09:06:28.261Z,32.53
2022-12-23T09:08:56.541Z,23.38
2022-12-23T09:11:24.171Z,20.25
2022-12-23T09:13:51.553Z,20.00
2022-12-23T09:16:18.943Z,17.77
2022-12-23T09:18:45.867Z,23.02
2022-12-23T09:21:17.204Z,19.38
2022-12-23T09:23:44.213Z,18.80
2022-12-23T09:26:11.674Z,24.75
2022-12-23T09:28:39.817Z,17.00
2022-12-23T09:31:10.467Z,17.10
2022-12-23T09:33:37.616Z,24.58
2022-12-23T09:36:05.748Z,20.65
2022-12-23T09:38:33.355Z,17.05
2022-12-23T09:41:23.536Z,24.02
2022-12-23T09:43:50.460Z,19.10
2022-12-23T09:46:19.821Z,37.45
2022-12-23T09:49:07.431Z,26.13
2022-12-23T09:51:34.507Z,35.85
2022-12-23T09:54:05.701Z,49.55
2022-12-23T09:56:44.666Z,53.33
2022-12-23T09:59:20.542Z,28.65
2022-12-23T10:01:52.515Z,24.60
2022-12-23T10:04:31.917Z,20.40
2022-12-23T10:07:05.328Z,24.27
2022-12-23T10:09:40.758Z,30.02
2022-12-23T10:12:13.469Z,27.48
2022-12-23T10:14:41.168Z,29.20
2022-12-23T10:17:14.118Z,35.80
2022-12-23T10:19:43.437Z,25.88
2022-12-23T10:22:22.310Z,22.63
2022-12-23T10:24:49.729Z,27.02
2022-12-23T10:27:30.333Z,24.17
2022-12-23T10:30:33.740Z,25.52
2022-12-23T10:33:04.495Z,24.90
2022-12-23T10:35:46.551Z,31.67
2022-12-23T10:38:13.569Z,29.30
2022-12-23T10:40:55.607Z,29.00
2022-12-23T10:43:40.750Z,34.80
2022-12-23T10:46:24.424Z,32.13
2022-12-23T10:48:56.662Z,40.67
2022-12-23T10:51:27.549Z,32.92
2022-12-23T10:53:54.505Z,27.02
2022-12-23T10:56:22.368Z,26.40
2022-12-23T10:58:52.125Z,30.70
2022-12-23T11:01:26.633Z,41.25
2022-12-23T11:03:54.356Z,68.38
2022-12-23T11:06:21.995Z,32.33
2022-12-23T11:08:49.303Z,25.77
2022-12-23T11:11:16.552Z,20.98
2022-12-23T11:13:45.092Z,18.30
2022-12-23T11:16:34.629Z,18.92
2022-12-23T11:19:06.524Z,22.88
2022-12-23T11:21:34.085Z,20.83
2022-12-23T11:24:07.013Z,25.17
2022-12-23T11:26:34.199Z,20.30
2022-12-23T11:29:06.173Z,24.08
2022-12-23T11:31:35.485Z,25.10
2022-12-23T11:34:07.256Z,26.38
2022-12-23T11:36:34.692Z,18.45
2022-12-23T11:39:07.563Z,19.17
2022-12-23T11:41:53.628Z,20.37
2022-12-23T11:44:38.215Z,22.33
2022-12-23T11:47:29.607Z,24.63
2022-12-23T11:49:58.319Z,24.40
2022-12-23T11:52:26.324Z,21.25
2022-12-23T11:54:56.159Z,18.50
2022-12-23T11:57:34.171Z,19.60
2022-12-23T12:00:02.370Z,18.17
2022-12-23T12:02:41.771Z,26.88
2022-12-23T12:05:27.936Z,26.77
2022-12-23T12:07:58.641Z,16.75
2022-12-23T12:10:29.620Z,27.90
2022-12-23T12:12:57.894Z,22.58
2022-12-23T12:15:30.057Z,20.95
2022-12-23T12:17:57.976Z,18.88
2022-12-23T12:20:38.941Z,21.02
2022-12-23T12:23:12.066Z,17.75
2022-12-23T12:25:44.655Z,20.15
2022-12-23T12:28:16.357Z,23.73
2022-12-23T12:30:53.028Z,30.50
2022-12-23T12:33:23.790Z,35.90
2022-12-23T12:36:00.269Z,27.33
2022-12-23T12:38:36.641Z,32.03
2022-12-23T12:41:03.706Z,31.75
2022-12-23T12:43:35.680Z,29.60
2022-12-23T12:46:21.608Z,20.60
2022-12-23T12:48:49.156Z,19.42
2022-12-23T12:51:18.894Z,23.77
2022-12-23T12:54:06.475Z,21.35
2022-12-23T12:56:53.739Z,26.17
2022-12-23T12:59:22.306Z,22.60
2022-12-23T13:01:53.427Z,19.50
2022-12-23T13:04:20.498Z,22.65
2022-12-23T13:07:03.074Z,23.23
2022-12-23T13:09:51.921Z,23.73
2022-12-23T13:12:37.613Z,22.38
2022-12-23T13:15:22.976Z,19.40
2022-12-23T13:18:25.204Z,28.00
2022-12-23T13:21:01.046Z,32.83
2022-12-23T13:23:44.643Z,34.80
2022-12-23T13:28:49.048Z,34.97
2022-12-23T13:31:28.288Z,28.77
2022-12-23T13:33:58.228Z,29.38
2022-12-23T13:36:25.323Z,30.20
2022-12-23T13:39:11.283Z,37.92
2022-12-23T13:42:04.833Z,37.67
2022-12-23T13:44:34.699Z,25.75
2022-12-23T13:47:20.414Z,48.42
2022-12-23T13:49:59.636Z,32.80
2022-12-23T13:52:34.621Z,22.85
2022-12-23T13:55:20.411Z,33.53
2022-12-23T13:58:05.896Z,23.58
2022-12-23T14:00:34.137Z,24.85
2022-12-23T14:03:01.312Z,24.58
2022-12-23T14:05:39.822Z,20.88
2022-12-23T14:08:18.707Z,17.98
2022-12-23T14:11:00.900Z,21.60
2022-12-23T14:13:29.956Z,19.45
2022-12-23T14:16:14.418Z,18.90
2022-12-23T14:18:50.645Z,18.95
2022-12-23T14:21:36.410Z,19.52
2022-12-23T14:24:15.950Z,20.33
2022-12-23T14:27:01.196Z,20.73
2022-12-23T14:29:31.269Z,20.10
2022-12-23T14:31:58.915Z,21.70
2022-12-23T14:34:28.329Z,20.65
2022-12-23T14:37:14.078Z,21.92
2022-12-23T14:39:41.581Z,21.30
2022-12-23T14:42:14.989Z,22.25
2022-12-23T14:44:46.780Z,21.40
2022-12-23T14:47:34.170Z,21.67
2022-12-23T14:50:19.688Z,21.48
2022-12-23T14:52:51.072Z,23.55
2022-12-23T14:55:32.621Z,23.48
2022-12-23T14:58:18.989Z,23.98
2022-12-23T15:00:57.173Z,47.45
2022-12-23T15:03:24.409Z,27.50
2022-12-23T15:05:51.801Z,83.70
2022-12-23T15:08:28.055Z,53.17
2022-12-23T15:10:56.314Z,114.25
2022-12-23T15:13:25.457Z,31.02
2022-12-23T15:15:57.528Z,42.47
2022-12-23T15:18:28.870Z,88.95
2022-12-23T15:21:00.274Z,56.88
2022-12-23T15:23:27.347Z,47.67
2022-12-23T15:25:56.142Z,66.78
2022-12-23T15:28:24.178Z,36.10
2022-12-23T15:30:56.398Z,40.97
2022-12-23T15:36:12.468Z,41.00
2022-12-23T15:38:39.644Z,45.30
2022-12-23T15:41:13.992Z,74.65
2022-12-23T15:43:41.433Z,32.70
2022-12-23T15:46:10.968Z,50.85
2022-12-23T15:48:38.530Z,73.40
2022-12-23T15:51:08.656Z,37.00
2022-12-23T15:53:38.161Z,42.25
2022-12-23T15:56:07.996Z,30.70
2022-12-23T15:58:36.090Z,40.42
2022-12-23T16:01:02.990Z,40.38
2022-12-23T16:03:39.536Z,36.33
2022-12-23T16:06:19.878Z,33.72
2022-12-23T16:08:55.680Z,32.60
2022-12-23T16:11:25.564Z,31.25
2022-12-23T16:14:00.488Z,28.55
2022-12-23T16:16:32.871Z,30.98
2022-12-23T16:19:00.546Z,32.30
2022-12-23T16:21:32.600Z,35.63
2022-12-23T16:24:00.163Z,38.63
2022-12-23T16:26:27.208Z,30.45
2022-12-23T16:29:01.321Z,39.13
2022-12-23T16:31:28.686Z,40.88
2022-12-23T16:33:59.267Z,37.75
2022-12-23T16:36:29.156Z,58.25
2022-12-23T16:39:14.477Z,46.63
2022-12-23T16:41:41.665Z,37.92
2022-12-23T16:44:08.568Z,36.45
2022-12-23T16:46:40.644Z,37.00
2022-12-23T16:49:11.481Z,35.08
2022-12-23T16:51:39.757Z,33.10
2022-12-23T16:54:06.801Z,45.72
2022-12-23T16:56:35.994Z,32.80
2022-12-23T16:59:03.221Z,38.15
2022-12-23T17:01:32.764Z,32.72
2022-12-23T17:03:59.922Z,35.85
2022-12-23T17:06:27.403Z,31.23
2022-12-23T17:08:54.661Z,31.70
2022-12-23T17:11:37.432Z,30.30
2022-12-23T17:14:09.103Z,30.60
2022-12-23T17:16:39.006Z,28.80
2022-12-23T17:19:06.097Z,36.03
2022-12-23T17:21:35.391Z,31.10
2022-12-23T17:24:14.515Z,30.73
2022-12-23T17:26:41.815Z,35.70
2022-12-23T17:29:10.365Z,33.75
2022-12-23T17:31:37.641Z,33.03
2022-12-23T17:34:04.712Z,32.33
2022-12-23T17:36:31.968Z,31.08
2022-12-23T17:38:59.002Z,31.70
2022-12-23T17:41:31.395Z,30.65
2022-12-23T17:43:58.816Z,33.03
2022-12-23T17:46:26.459Z,35.33
2022-12-23T17:48:53.709Z,32.60
2022-12-23T17:51:22.291Z,33.55
2022-12-23T17:53:55.155Z,30.52
2022-12-23T17:56:25.042Z,30.45
2022-12-23T17:58:52.038Z,28.83
2022-12-23T18:01:19.015Z,29.27
2022-12-23T18:03:46.356Z,29.48
2022-12-23T18:06:14.633Z,32.17
2022-12-23T18:08:41.940Z,30.63
2022-12-23T18:11:09.808Z,29.98
2022-12-23T18:13:37.271Z,31.30
2022-12-23T18:16:04.568Z,29.95
2022-12-23T18:18:43.482Z,30.40
2022-12-23T18:21:24.518Z,30.67
2022-12-23T18:23:51.960Z,29.55
2022-12-23T18:26:18.942Z,31.17
2022-12-23T18:28:46.206Z,31.50
2022-12-23T18:31:15.960Z,31.88
2022-12-23T18:33:42.644Z,30.92
2022-12-23T18:36:18.931Z,29.52
2022-12-23T18:38:45.930Z,33.63
2022-12-23T18:41:13.397Z,31.67
2022-12-23T18:43:40.649Z,33.25
2022-12-23T18:46:07.933Z,32.00
2022-12-23T18:48:35.424Z,31.83
2022-12-23T18:51:02.539Z,34.88
2022-12-23T18:53:29.131Z,34.83
2022-12-23T18:55:56.532Z,30.80
2022-12-23T18:58:23.343Z,32.33
2022-12-23T19:00:50.656Z,31.85
2022-12-23T19:03:26.031Z,32.33
2022-12-23T19:05:54.160Z,32.80
2022-12-23T19:08:26.705Z,31.75
2022-12-23T19:10:54.600Z,32.30
2022-12-23T19:13:21.756Z,34.80
2022-12-23T19:15:49.487Z,33.45
2022-12-23T19:18:17.595Z,34.15
2022-12-23T19:20:45.344Z,34.45
2022-12-23T19:23:12.951Z,32.45
2022-12-23T19:25:52.500Z,34.92
2022-12-23T19:28:22.746Z,33.47
2022-12-23T19:30:49.959Z,32.05
2022-12-23T19:33:17.299Z,32.20
2022-12-23T19:35:45.799Z,31.15
2022-12-23T19:38:12.902Z,32.08
2022-12-23T19:40:40.146Z,35.88
2022-12-23T19:43:07.322Z,33.53
2022-12-23T19:45:34.284Z,34.00
2022-12-23T19:48:01.221Z,35.10
2022-12-23T19:50:28.380Z,36.17
2022-12-23T19:52:56.729Z,87.22
2022-12-23T19:55:23.943Z,118.32
2022-12-23T19:57:52.441Z,80.72
2022-12-23T20:00:20.020Z,42.60
2022-12-23T20:02:47.190Z,35.53
2022-12-23T20:05:14.411Z,34.25
2022-12-23T20:07:41.691Z,34.95
2022-12-23T20:10:09.040Z,39.78
2022-12-23T20:12:36.188Z,36.83
2022-12-23T20:15:03.449Z,36.40
2022-12-23T20:17:30.552Z,37.35
2022-12-23T20:19:57.806Z,37.58
2022-12-23T20:22:24.923Z,46.97
2022-12-23T20:24:52.246Z,40.28
2022-12-23T20:27:24.195Z,47.53
2022-12-23T20:29:53.555Z,39.83
2022-12-23T20:32:20.612Z,39.42
2022-12-23T20:34:49.433Z,41.10
2022-12-23T20:37:16.574Z,39.40
2022-12-23T20:39:43.678Z,40.85
2022-12-23T20:42:10.867Z,39.67
2022-12-23T20:44:37.969Z,41.30
2022-12-23T20:47:08.243Z,59.40
2022-12-23T20:49:35.327Z,46.38
2022-12-23T20:52:02.530Z,41.92
2022-12-23T20:54:33.240Z,39.17
2022-12-23T20:57:01.438Z,39.17
2022-12-23T20:59:28.533Z,41.67
2022-12-23T21:01:55.829Z,43.47
2022-12-23T21:04:23.043Z,41.67
2022-12-23T21:06:51.187Z,41.85
2022-12-23T21:09:18.367Z,39.10
2022-12-23T21:11:46.296Z,40.88
2022-12-23T21:14:13.623Z,38.85
2022-12-23T21:16:41.187Z,70.90
2022-12-23T21:19:09.217Z,49.78
2022-12-23T21:21:36.487Z,40.50
2022-12-23T21:24:05.063Z,43.00
2022-12-23T21:26:33.244Z,42.70
2022-12-23T21:29:01.150Z,41.35
2022-12-23T21:31:29.996Z,42.95
2022-12-23T21:33:57.456Z,45.28
2022-12-23T21:36:28.793Z,43.45
2022-12-23T21:38:55.866Z,40.67
2022-12-23T21:41:24.989Z,44.80
2022-12-23T21:43:52.078Z,40.53
2022-12-23T21:46:20.245Z,37.55
2022-12-23T21:48:47.628Z,37.65
2022-12-23T21:51:15.906Z,37.70
2022-12-23T21:53:43.574Z,50.55
2022-12-23T21:56:15.434Z,42.55
2022-12-23T21:58:42.764Z,40.53
2022-12-23T22:01:10.942Z,38.88
2022-12-23T22:03:37.919Z,42.45
2022-12-23T22:06:10.184Z,46.03
2022-12-23T22:08:38.104Z,35.17
2022-12-23T22:11:09.268Z,48.40
2022-12-23T22:13:36.927Z,39.95
2022-12-23T22:16:04.489Z,40.90
2022-12-23T22:18:31.742Z,49.15
2022-12-23T22:20:58.683Z,41.85
2022-12-23T22:23:25.765Z,38.17
2022-12-23T22:25:54.118Z,35.20
2022-12-23T22:28:21.592Z,36.65
2022-12-23T22:30:48.987Z,45.72
2022-12-23T22:33:16.336Z,40.88
2022-12-23T22:35:43.689Z,47.13
2022-12-23T22:38:10.972Z,39.45
2022-12-23T22:40:38.049Z,37.38
2022-12-23T22:43:04.971Z,37.13
2022-12-23T22:45:31.948Z,36.38
2022-12-23T22:47:59.203Z,41.90
2022-12-23T22:50:26.217Z,35.28
2022-12-23T22:52:53.276Z,37.72
2022-12-23T22:55:20.320Z,44.30
2022-12-23T22:57:47.263Z,40.72
2022-12-23T23:00:14.403Z,81.90
2022-12-23T23:02:41.580Z,49.47
2022-12-23T23:05:12.900Z,97.00
2022-12-23T23:07:40.781Z,103.97
2022-12-23T23:10:08.089Z,53.88
2022-12-23T23:12:35.061Z,57.45
2022-12-23T23:15:02.167Z,48.20
2022-12-23T23:17:29.300Z,67.68
2022-12-23T23:19:56.253Z,292.38
2022-12-23T23:22:24.101Z,143.75
2022-12-23T23:24:51.544Z,65.28
2022-12-23T23:27:18.783Z,40.85
2022-12-23T23:29:45.947Z,40.25
2022-12-23T23:32:13.112Z,41.90
2022-12-23T23:34:41.070Z,43.75
2022-12-23T23:37:08.008Z,41.25
2022-12-23T23:39:35.056Z,42.38
2022-12-23T23:42:02.200Z,43.65
2022-12-23T23:44:29.160Z,45.40
2022-12-23T23:46:56.327Z,42.05
2022-12-23T23:49:23.686Z,45.42
2022-12-23T23:51:50.880Z,42.97
2022-12-23T23:54:18.067Z,43.55
2022-12-23T23:56:45.326Z,44.75
2022-12-23T23:59:12.632Z,42.72
